Time;durP1;ratioP1;P1;durP2;ratioP2;P2;SDS_P1;SDS_P2;PMS_P1;PMS_P2;Temp;Humidity;BMP_temperature;BMP_pressure;BME280_temperature;BME280_humidity;BME280_pressure;Samples;Min_cycle;Max_cycle;Signal;HPM_P1;HPM_P2
2023/11/13 00:01:21;;;;;;;;;;;13.10;91.60;;;;;;5108333;28;19945;-71
2023/11/13 00:03:47;;;;;;;;;;;13.10;91.60;;;;;;5108269;28;19931;-72
2023/11/13 00:06:13;;;;;;;;;;;13.10;91.60;;;;;;5108835;28;20313;-72
2023/11/13 00:08:39;;;;;;;;;;;13.10;91.60;;;;;;5108136;28;20379;-72
2023/11/13 00:11:05;;;;;;;;;;;13.10;91.50;;;;;;5108225;28;20399;-72
2023/11/13 00:13:30;;;;;;;;;;;13.00;91.50;;;;;;5108032;28;19916;-72
2023/11/13 00:15:57;;;;;;;;;;;13.00;91.50;;;;;;5089889;28;19908;-72
2023/11/13 00:18:23;;;;;;;;;;;13.00;91.50;;;;;;5108222;28;19908;-72
2023/11/13 00:20:49;;;;;;;;;;;13.00;91.50;;;;;;5108151;28;19912;-72
2023/11/13 00:23:15;;;;;;;;;;;13.00;91.60;;;;;;5108457;28;20405;-72
2023/11/13 00:25:41;;;;;;;;;;;13.00;91.60;;;;;;5108084;28;19911;-72
2023/11/13 00:28:06;;;;;;;;;;;13.00;91.60;;;;;;5108084;28;19912;-72
2023/11/13 00:30:32;;;;;;;;;;;13.00;91.50;;;;;;5108162;28;19919;-72
2023/11/13 00:32:57;;;;;;;;;;;13.00;91.50;;;;;;5107803;28;19950;-72
2023/11/13 00:35:23;;;;;;;;;;;12.90;91.50;;;;;;5089883;28;19935;-72
2023/11/13 00:37:49;;;;;;;;;;;12.90;91.50;;;;;;5107987;28;19947;-72
2023/11/13 00:40:15;;;;;;;;;;;12.90;91.50;;;;;;5108163;28;19950;-72
2023/11/13 00:42:40;;;;;;;;;;;12.80;91.50;;;;;;5112183;28;19943;-72
2023/11/13 00:45:06;;;;;;;;;;;12.80;91.50;;;;;;5093810;28;19918;-72
2023/11/13 00:47:32;;;;;;;;;;;12.70;91.50;;;;;;5111964;28;20328;-72
2023/11/13 00:49:57;;;;;;;;;;;12.70;91.50;;;;;;5111957;28;20014;-72
2023/11/13 00:52:23;;;;;;;;;;;12.70;91.50;;;;;;5111892;28;19918;-72
2023/11/13 00:54:48;;;;;;;;;;;12.70;91.60;;;;;;5111795;28;19916;-72
2023/11/13 00:57:14;;;;;;;;;;;12.70;91.50;;;;;;5111864;28;19935;-72
2023/11/13 00:59:39;;;;;;;;;;;12.70;91.50;;;;;;5111872;28;19947;-72
2023/11/13 01:02:05;;;;;;;;;;;12.70;91.50;;;;;;5111707;28;20018;-72
2023/11/13 01:04:31;;;;;;;;;;;12.60;91.50;;;;;;5111766;28;19919;-72
2023/11/13 01:06:57;;;;;;;;;;;12.50;91.40;;;;;;5111635;28;20484;-72
2023/11/13 01:09:22;;;;;;;;;;;12.40;91.40;;;;;;5111488;28;19947;-72
2023/11/13 01:11:50;;;;;;;;;;;12.30;91.50;;;;;;5111542;28;19919;-72
2023/11/13 01:14:16;;;;;;;;;;;12.30;91.50;;;;;;5111532;28;19962;-72
2023/11/13 01:16:42;;;;;;;;;;;12.20;91.60;;;;;;5093131;28;19955;-71
2023/11/13 01:19:07;;;;;;;;;;;12.20;91.60;;;;;;5093447;28;19916;-72
2023/11/13 01:21:33;;;;;;;;;;;12.20;91.60;;;;;;5111539;28;19912;-71
2023/11/13 01:23:58;;;;;;;;;;;12.20;91.60;;;;;;5111361;28;20253;-72
2023/11/13 01:26:25;;;;;;;;;;;12.20;91.60;;;;;;5111359;28;19918;-72
2023/11/13 01:28:51;;;;;;;;;;;12.10;91.60;;;;;;5111383;28;19908;-72
2023/11/13 01:31:16;;;;;;;;;;;12.10;91.60;;;;;;5111262;28;20224;-72
2023/11/13 01:33:42;;;;;;;;;;;12.10;91.50;;;;;;5111064;28;19923;-72
2023/11/13 01:36:07;;;;;;;;;;;12.00;91.50;;;;;;5111113;28;19932;-72
2023/11/13 01:38:33;;;;;;;;;;;12.00;91.60;;;;;;5111144;28;19912;-72
2023/11/13 01:40:59;;;;;;;;;;;11.90;91.50;;;;;;5111057;28;19911;-72
2023/11/13 01:43:24;;;;;;;;;;;11.90;91.60;;;;;;5111112;28;20106;-72
2023/11/13 01:45:54;;;;;;;;;;;11.90;91.60;;;;;;5111096;28;19973;-72
2023/11/13 01:48:20;;;;;;;;;;;11.90;91.60;;;;;;5110823;28;19907;-72
2023/11/13 01:50:47;;;;;;;;;;;11.90;91.80;;;;;;5110907;28;19914;-72
2023/11/13 01:53:14;;;;;;;;;;;11.90;91.60;;;;;;5091534;28;19915;-72
2023/11/13 01:55:40;;;;;;;;;;;11.80;91.60;;;;;;5092500;28;19915;-72
2023/11/13 01:58:06;;;;;;;;;;;11.80;91.60;;;;;;5092562;28;19916;-72
2023/11/13 02:00:32;;;;;;;;;;;11.80;91.60;;;;;;5110730;28;19918;-72
2023/11/13 02:02:58;;;;;;;;;;;11.80;91.60;;;;;;5110678;28;19924;-72
2023/11/13 02:05:24;;;;;;;;;;;11.80;91.60;;;;;;5092459;28;19912;-72
2023/11/13 02:07:50;;;;;;;;;;;11.80;91.60;;;;;;5110412;28;20386;-72
2023/11/13 02:10:15;;;;;;;;;;;11.80;91.70;;;;;;5092261;28;19908;-72
2023/11/13 02:12:41;;;;;;;;;;;11.80;91.70;;;;;;5110400;28;19923;-72
2023/11/13 02:15:07;;;;;;;;;;;11.80;91.70;;;;;;5110458;28;19929;-71
2023/11/13 02:17:33;;;;;;;;;;;11.80;91.60;;;;;;5110301;28;20235;-71
2023/11/13 02:19:58;;;;;;;;;;;11.70;91.60;;;;;;5092088;28;19912;-71
2023/11/13 02:22:24;;;;;;;;;;;11.70;91.70;;;;;;5110406;28;19912;-71
2023/11/13 02:24:50;;;;;;;;;;;11.70;91.70;;;;;;5110193;28;19916;-71
2023/11/13 02:27:16;;;;;;;;;;;11.70;91.70;;;;;;5110288;28;19971;-71
2023/11/13 02:29:43;;;;;;;;;;;11.70;91.70;;;;;;5110110;28;19919;-71
2023/11/13 02:32:09;;;;;;;;;;;11.70;91.70;;;;;;5110086;28;19919;-71
2023/11/13 02:34:34;;;;;;;;;;;11.70;91.70;;;;;;5109960;28;19912;-71
2023/11/13 02:37:00;;;;;;;;;;;11.70;91.60;;;;;;5110036;28;19977;-71
2023/11/13 02:39:26;;;;;;;;;;;11.70;91.60;;;;;;5109972;28;19916;-71
2023/11/13 02:41:51;;;;;;;;;;;11.70;91.60;;;;;;5109891;28;20011;-71
2023/11/13 02:44:17;;;;;;;;;;;11.70;91.60;;;;;;5109925;28;19919;-71
2023/11/13 02:46:43;;;;;;;;;;;11.70;91.60;;;;;;5109847;28;20248;-71
2023/11/13 02:49:08;;;;;;;;;;;11.70;91.60;;;;;;5109693;28;19931;-71
2023/11/13 02:51:34;;;;;;;;;;;11.70;91.60;;;;;;5109723;28;19961;-71
2023/11/13 02:53:59;;;;;;;;;;;11.70;91.60;;;;;;5109701;28;20205;-71
2023/11/13 02:56:25;;;;;;;;;;;11.70;91.60;;;;;;5109712;28;19986;-71
2023/11/13 02:58:50;;;;;;;;;;;11.70;91.60;;;;;;5109548;28;19918;-71
2023/11/13 03:01:17;;;;;;;;;;;11.70;91.60;;;;;;5091576;28;19912;-71
2023/11/13 03:03:43;;;;;;;;;;;11.70;91.60;;;;;;5109279;28;19939;-71
2023/11/13 03:06:08;;;;;;;;;;;11.60;91.60;;;;;;5109414;28;20386;-71
2023/11/13 03:08:34;;;;;;;;;;;11.70;91.60;;;;;;5109199;28;19974;-71
2023/11/13 03:10:59;;;;;;;;;;;11.60;91.60;;;;;;5109303;28;20408;-71
2023/11/13 03:13:25;;;;;;;;;;;11.60;91.60;;;;;;5109107;28;20404;-71
2023/11/13 03:15:51;;;;;;;;;;;11.60;91.60;;;;;;5109166;28;20018;-71
2023/11/13 03:18:17;;;;;;;;;;;11.60;91.60;;;;;;5109169;28;19919;-71
2023/11/13 03:20:44;;;;;;;;;;;11.60;91.60;;;;;;5109245;28;19916;-71
2023/11/13 03:23:12;;;;;;;;;;;11.70;91.70;;;;;;5109002;28;19911;-71
2023/11/13 03:25:38;;;;;;;;;;;11.70;91.70;;;;;;5109119;28;19912;-72
2023/11/13 03:28:04;;;;;;;;;;;11.70;91.70;;;;;;5109029;28;19908;-71
2023/11/13 03:30:32;;;;;;;;;;;11.70;91.70;;;;;;5108939;28;19919;-71
2023/11/13 03:32:58;;;;;;;;;;;11.70;91.70;;;;;;5108851;28;19919;-71
2023/11/13 03:35:23;;;;;;;;;;;11.70;91.70;;;;;;5090601;28;19934;-71
2023/11/13 03:37:49;;;;;;;;;;;11.70;91.80;;;;;;5108917;28;20407;-71
2023/11/13 03:40:14;;;;;;;;;;;11.70;91.70;;;;;;5108855;28;19911;-71
2023/11/13 03:42:40;;;;;;;;;;;11.80;91.80;;;;;;5108724;28;19998;-71
2023/11/13 03:45:07;;;;;;;;;;;11.90;91.90;;;;;;5108658;28;19916;-71
2023/11/13 03:47:32;;;;;;;;;;;12.00;91.90;;;;;;5108663;28;19912;-71
2023/11/13 03:49:58;;;;;;;;;;;12.10;92.00;;;;;;5108668;28;20299;-71
2023/11/13 03:52:24;;;;;;;;;;;12.20;92.00;;;;;;5108593;28;19947;-72
2023/11/13 03:54:50;;;;;;;;;;;12.30;92.10;;;;;;5108481;28;19919;-71
2023/11/13 03:57:15;;;;;;;;;;;12.40;91.90;;;;;;5108501;28;19912;-72
2023/11/13 03:59:41;;;;;;;;;;;12.50;91.90;;;;;;5090330;28;19916;-72
2023/11/13 04:02:07;;;;;;;;;;;12.60;91.90;;;;;;5108320;28;19912;-72
2023/11/13 04:04:32;;;;;;;;;;;12.70;91.90;;;;;;5108543;28;19930;-72
2023/11/13 04:06:58;;;;;;;;;;;12.70;91.90;;;;;;5108346;28;19919;-72
2023/11/13 04:09:24;;;;;;;;;;;12.70;91.90;;;;;;5108231;28;19924;-72
2023/11/13 04:11:50;;;;;;;;;;;12.80;91.90;;;;;;5108303;28;20053;-72
2023/11/13 04:14:16;;;;;;;;;;;12.80;91.90;;;;;;5108275;28;19926;-72
2023/11/13 04:16:42;;;;;;;;;;;12.80;91.90;;;;;;5107795;28;19908;-72
2023/11/13 04:19:08;;;;;;;;;;;12.80;91.90;;;;;;5090044;28;20279;-71
2023/11/13 04:21:34;;;;;;;;;;;12.90;92.00;;;;;;5090192;28;20029;-72
2023/11/13 04:24:00;;;;;;;;;;;12.90;92.00;;;;;;5089902;28;20346;-72
2023/11/13 04:26:26;;;;;;;;;;;13.00;92.00;;;;;;5108142;28;19912;-71
2023/11/13 04:28:53;;;;;;;;;;;13.00;92.00;;;;;;5108175;28;19912;-71
2023/11/13 04:31:18;;;;;;;;;;;13.10;92.10;;;;;;5108116;28;19951;-72
2023/11/13 04:33:44;;;;;;;;;;;13.20;92.10;;;;;;5089864;28;20399;-71
2023/11/13 04:36:10;;;;;;;;;;;13.30;92.10;;;;;;5108161;28;19912;-71
2023/11/13 04:38:40;;;;;;;;;;;13.40;92.10;;;;;;5108121;28;19912;-71
2023/11/13 04:41:06;;;;;;;;;;;13.50;92.10;;;;;;5107975;28;19921;-71
2023/11/13 04:43:32;;;;;;;;;;;13.60;92.10;;;;;;5107880;28;19935;-71
2023/11/13 04:45:57;;;;;;;;;;;13.70;92.10;;;;;;5108236;28;20362;-71
2023/11/13 04:48:23;;;;;;;;;;;13.70;92.00;;;;;;5089726;28;19943;-71
2023/11/13 04:50:48;;;;;;;;;;;13.70;92.10;;;;;;5107958;28;19923;-71
2023/11/13 04:53:14;;;;;;;;;;;13.80;92.10;;;;;;5107749;28;19937;-71
2023/11/13 04:55:39;;;;;;;;;;;13.80;92.10;;;;;;5089891;28;19908;-72
2023/11/13 04:58:06;;;;;;;;;;;13.80;92.10;;;;;;5107815;28;19930;-71
2023/11/13 05:00:31;;;;;;;;;;;13.90;92.20;;;;;;5107934;28;20364;-71
2023/11/13 05:02:57;;;;;;;;;;;13.90;92.20;;;;;;5107958;28;19916;-71
2023/11/13 05:05:22;;;;;;;;;;;14.00;92.20;;;;;;5107900;28;19912;-71
2023/11/13 05:07:48;;;;;;;;;;;14.00;92.20;;;;;;5107626;28;20395;-71
2023/11/13 05:10:13;;;;;;;;;;;14.00;92.20;;;;;;5107843;28;19965;-71
2023/11/13 05:12:39;;;;;;;;;;;14.00;92.30;;;;;;5107701;28;19912;-71
2023/11/13 05:15:05;;;;;;;;;;;14.00;92.20;;;;;;5107701;28;20355;-71
2023/11/13 05:17:31;;;;;;;;;;;14.00;92.20;;;;;;5107790;28;20021;-71
2023/11/13 05:19:59;;;;;;;;;;;13.90;92.30;;;;;;5107783;28;19918;-71
2023/11/13 05:22:24;;;;;;;;;;;13.90;92.30;;;;;;5107759;28;20098;-71
2023/11/13 05:24:50;;;;;;;;;;;13.90;92.30;;;;;;5108131;28;19912;-71
2023/11/13 05:27:16;;;;;;;;;;;13.90;92.30;;;;;;5107871;28;19947;-71
2023/11/13 05:29:41;;;;;;;;;;;13.90;92.20;;;;;;5111243;28;20295;-71
2023/11/13 05:32:07;;;;;;;;;;;13.80;92.20;;;;;;5092922;28;19908;-71
2023/11/13 05:34:33;;;;;;;;;;;13.70;92.20;;;;;;5111211;28;19966;-71
2023/11/13 05:36:58;;;;;;;;;;;13.70;92.20;;;;;;5111142;28;20368;-71
2023/11/13 05:39:24;;;;;;;;;;;13.60;92.10;;;;;;5111131;28;19912;-71
2023/11/13 05:41:49;;;;;;;;;;;13.50;92.00;;;;;;5110949;28;19929;-71
2023/11/13 05:44:15;;;;;;;;;;;13.30;91.90;;;;;;5111068;28;19920;-71
2023/11/13 05:46:41;;;;;;;;;;;13.10;91.90;;;;;;5110965;28;19919;-71
2023/11/13 05:49:07;;;;;;;;;;;13.00;92.00;;;;;;5092593;28;19915;-71
2023/11/13 05:51:32;;;;;;;;;;;12.80;92.00;;;;;;5110847;28;19998;-71
2023/11/13 05:53:58;;;;;;;;;;;12.70;92.00;;;;;;5110739;28;19918;-71
2023/11/13 05:56:23;;;;;;;;;;;12.70;92.10;;;;;;5110783;28;20294;-71
2023/11/13 05:58:49;;;;;;;;;;;12.50;92.10;;;;;;5110669;28;19935;-71
2023/11/13 06:01:18;;;;;;;;;;;12.40;92.00;;;;;;5110816;28;19933;-71
2023/11/13 06:03:44;;;;;;;;;;;12.30;92.00;;;;;;5110661;28;19914;-71
2023/11/13 06:06:16;;;;;;;;;;;12.20;92.00;;;;;;5110682;28;20006;-71
2023/11/13 06:08:42;;;;;;;;;;;12.00;92.00;;;;;;5110397;28;19935;-71
2023/11/13 06:11:08;;;;;;;;;;;12.00;92.10;;;;;;5110461;28;19919;-71
2023/11/13 06:13:35;;;;;;;;;;;11.90;92.10;;;;;;5110419;28;20057;-71
2023/11/13 06:16:01;;;;;;;;;;;11.80;92.10;;;;;;5110337;28;19947;-72
2023/11/13 06:18:27;;;;;;;;;;;11.80;92.00;;;;;;5110434;28;20003;-70
2023/11/13 06:20:53;;;;;;;;;;;11.70;92.00;;;;;;5110333;28;19911;-71
2023/11/13 06:23:19;;;;;;;;;;;11.70;92.00;;;;;;5091843;28;19916;-72
2023/11/13 06:25:44;;;;;;;;;;;11.60;92.00;;;;;;5110165;28;20007;-71
2023/11/13 06:28:10;;;;;;;;;;;11.60;92.00;;;;;;5110283;28;20385;-71
2023/11/13 06:30:35;;;;;;;;;;;11.60;92.00;;;;;;5110150;28;19911;-71
2023/11/13 06:33:02;;;;;;;;;;;11.60;92.00;;;;;;5109672;28;19969;-72
2023/11/13 06:35:28;;;;;;;;;;;11.50;92.00;;;;;;5109947;28;19912;-71
2023/11/13 06:37:53;;;;;;;;;;;11.50;92.00;;;;;;5109733;28;20189;-71
2023/11/13 06:40:19;;;;;;;;;;;11.50;92.00;;;;;;5091114;28;19908;-71
2023/11/13 06:42:45;;;;;;;;;;;11.50;92.00;;;;;;5109852;28;19958;-72
2023/11/13 06:45:14;;;;;;;;;;;11.50;91.90;;;;;;5109656;28;20353;-71
2023/11/13 06:47:40;;;;;;;;;;;11.40;91.80;;;;;;5109975;28;19912;-71
2023/11/13 06:50:06;;;;;;;;;;;11.30;91.80;;;;;;5109739;28;20624;-73
2023/11/13 06:52:32;;;;;;;;;;;11.30;91.80;;;;;;5109516;28;20003;-72
2023/11/13 06:54:58;;;;;;;;;;;11.20;91.80;;;;;;5091095;28;20014;-71
2023/11/13 06:57:25;;;;;;;;;;;11.20;91.80;;;;;;5109491;28;19912;-71
2023/11/13 06:59:52;;;;;;;;;;;11.20;91.80;;;;;;5109544;28;19911;-70
2023/11/13 07:02:21;;;;;;;;;;;11.20;91.80;;;;;;5109389;28;19999;-71
2023/11/13 07:04:49;;;;;;;;;;;11.10;91.80;;;;;;5109835;28;20380;-71
2023/11/13 07:07:15;;;;;;;;;;;11.20;91.90;;;;;;5109380;28;19968;-71
2023/11/13 07:09:40;;;;;;;;;;;11.10;91.80;;;;;;5090746;28;20006;-71
2023/11/13 07:12:07;;;;;;;;;;;11.10;91.80;;;;;;5109270;28;19996;-71
2023/11/13 07:14:33;;;;;;;;;;;11.10;91.80;;;;;;5090916;28;19920;-71
2023/11/13 07:16:59;;;;;;;;;;;11.10;91.80;;;;;;5091195;28;19965;-71
2023/11/13 07:19:24;;;;;;;;;;;11.10;91.70;;;;;;5109309;28;19911;-71
2023/11/13 07:21:50;;;;;;;;;;;11.00;91.60;;;;;;5109049;28;19916;-71
2023/11/13 07:24:16;;;;;;;;;;;11.00;91.60;;;;;;5109159;28;19915;-71
2023/11/13 07:26:42;;;;;;;;;;;10.90;91.60;;;;;;5108958;28;19916;-71
2023/11/13 07:29:07;;;;;;;;;;;10.80;91.50;;;;;;5090776;28;20305;-71
2023/11/13 07:31:33;;;;;;;;;;;10.70;91.50;;;;;;5090845;28;19919;-71
2023/11/13 07:33:59;;;;;;;;;;;10.60;91.50;;;;;;5090502;28;20356;-71
2023/11/13 07:36:24;;;;;;;;;;;10.50;91.50;;;;;;5108975;28;20386;-71
2023/11/13 07:38:50;;;;;;;;;;;10.40;91.50;;;;;;5108708;28;19916;-72
2023/11/13 07:41:16;;;;;;;;;;;10.40;91.60;;;;;;5108729;28;20006;-71
2023/11/13 07:43:42;;;;;;;;;;;10.40;91.60;;;;;;5090499;28;19914;-71
2023/11/13 07:46:09;;;;;;;;;;;10.40;91.60;;;;;;5108822;28;19955;-71
2023/11/13 07:48:35;;;;;;;;;;;10.30;91.60;;;;;;5090518;28;20402;-71
2023/11/13 07:51:04;;;;;;;;;;;10.30;91.60;;;;;;5108069;28;19965;-71
2023/11/13 07:53:30;;;;;;;;;;;10.30;91.60;;;;;;5107990;28;19916;-71
2023/11/13 07:55:56;;;;;;;;;;;10.30;91.60;;;;;;5108548;28;19908;-71
2023/11/13 07:58:22;;;;;;;;;;;10.30;91.60;;;;;;5108300;28;19916;-71
2023/11/13 08:00:53;;;;;;;;;;;10.30;91.60;;;;;;5090080;28;20364;-71
2023/11/13 08:03:27;;;;;;;;;;;10.40;91.60;;;;;;5108287;28;19919;-72
2023/11/13 08:05:53;;;;;;;;;;;10.40;91.70;;;;;;5108369;28;19992;-71
2023/11/13 08:08:18;;;;;;;;;;;10.40;91.70;;;;;;5108296;28;20144;-71
2023/11/13 08:10:47;;;;;;;;;;;10.50;91.70;;;;;;5108382;28;19908;-71
2023/11/13 08:13:13;;;;;;;;;;;10.50;91.70;;;;;;5108289;28;19931;-71
2023/11/13 08:15:39;;;;;;;;;;;10.60;91.70;;;;;;5108558;28;19990;-72
2023/11/13 08:18:04;;;;;;;;;;;10.70;91.80;;;;;;5089857;28;20383;-72
2023/11/13 08:20:30;;;;;;;;;;;10.80;91.80;;;;;;5108110;28;19935;-72
2023/11/13 08:22:56;;;;;;;;;;;10.80;91.80;;;;;;5108189;28;19943;-72
2023/11/13 08:25:25;;;;;;;;;;;10.80;91.80;;;;;;5073232;28;19918;-72
2023/11/13 08:27:51;;;;;;;;;;;10.90;91.80;;;;;;5108360;28;19911;-72
2023/11/13 08:30:18;;;;;;;;;;;10.90;91.70;;;;;;5107960;28;19979;-72
2023/11/13 08:32:43;;;;;;;;;;;10.90;91.60;;;;;;5107907;28;19915;-72
2023/11/13 08:35:12;;;;;;;;;;;10.90;91.60;;;;;;5107768;28;19919;-72
2023/11/13 08:37:38;;;;;;;;;;;10.90;91.60;;;;;;5108058;28;20309;-72
2023/11/13 08:40:05;;;;;;;;;;;10.90;91.60;;;;;;5108042;28;19908;-72
2023/11/13 08:42:30;;;;;;;;;;;10.90;91.70;;;;;;5107860;28;19922;-71
2023/11/13 08:44:56;;;;;;;;;;;11.00;91.80;;;;;;5072648;28;19927;-72
2023/11/13 08:47:22;;;;;;;;;;;11.00;91.80;;;;;;5107945;28;20007;-72
2023/11/13 08:49:48;;;;;;;;;;;11.10;91.80;;;;;;5107870;28;19912;-72
2023/11/13 08:52:13;;;;;;;;;;;11.10;91.80;;;;;;5107745;28;20588;-72
2023/11/13 08:54:39;;;;;;;;;;;11.10;91.70;;;;;;5107751;28;19915;-72
2023/11/13 08:57:06;;;;;;;;;;;11.20;91.80;;;;;;5107496;28;19919;-72
2023/11/13 08:59:33;;;;;;;;;;;11.20;91.70;;;;;;5107657;28;19908;-72
2023/11/13 09:01:58;;;;;;;;;;;11.20;91.70;;;;;;5109086;28;19912;-73
2023/11/13 09:04:24;;;;;;;;;;;11.30;91.80;;;;;;5111671;28;20019;-72
2023/11/13 09:06:50;;;;;;;;;;;11.30;91.80;;;;;;5111616;28;19912;-72
2023/11/13 09:09:16;;;;;;;;;;;11.30;91.80;;;;;;5111496;28;19953;-72
2023/11/13 09:11:42;;;;;;;;;;;11.40;91.80;;;;;;5111422;28;19916;-72
2023/11/13 09:14:10;;;;;;;;;;;11.40;91.80;;;;;;5111492;28;19912;-72
2023/11/13 09:16:37;;;;;;;;;;;11.50;91.80;;;;;;5111461;28;19914;-72
2023/11/13 09:19:03;;;;;;;;;;;11.60;91.80;;;;;;5110383;28;19912;-72
2023/11/13 09:21:29;;;;;;;;;;;11.60;91.70;;;;;;5112031;28;19916;-72
2023/11/13 09:23:55;;;;;;;;;;;11.60;91.70;;;;;;5110264;28;19918;-71
2023/11/13 09:26:20;;;;;;;;;;;11.60;91.70;;;;;;5100600;28;19919;-71
2023/11/13 09:28:46;;;;;;;;;;;11.60;91.70;;;;;;5109616;28;19912;-72
2023/11/13 09:31:12;;;;;;;;;;;11.60;91.70;;;;;;5091632;28;20525;-72
2023/11/13 09:33:39;;;;;;;;;;;11.60;91.70;;;;;;5074691;28;19985;-70
2023/11/13 09:36:06;;;;;;;;;;;11.60;91.70;;;;;;5112101;28;19911;-72
2023/11/13 09:38:32;;;;;;;;;;;11.60;91.70;;;;;;5111362;28;19912;-74
2023/11/13 09:41:02;;;;;;;;;;;11.60;91.70;;;;;;5111131;28;19912;-76
2023/11/13 09:43:35;;;;;;;;;;;11.60;91.70;;;;;;5111324;28;19915;-73
2023/11/13 09:46:06;;;;;;;;;;;11.60;91.70;;;;;;5081839;28;19923;-73
2023/11/13 09:48:35;;;;;;;;;;;11.70;91.80;;;;;;5091818;28;20537;-75
2023/11/13 09:51:01;;;;;;;;;;;11.70;91.80;;;;;;5106103;28;19957;-76
2023/11/13 09:53:29;;;;;;;;;;;11.70;91.80;;;;;;5111449;28;19926;-75
2023/11/13 09:55:55;;;;;;;;;;;11.80;91.80;;;;;;5092996;28;19908;-76
2023/11/13 09:58:21;;;;;;;;;;;11.80;91.80;;;;;;5111309;28;20402;-75
2023/11/13 10:00:46;;;;;;;;;;;11.90;91.80;;;;;;5111065;28;19908;-75
2023/11/13 10:03:15;;;;;;;;;;;12.00;91.90;;;;;;5103003;28;19916;-76
2023/11/13 10:05:41;;;;;;;;;;;12.00;91.80;;;;;;5056649;28;19916;-75
2023/11/13 10:08:07;;;;;;;;;;;12.10;91.90;;;;;;5092159;28;19970;-75
2023/11/13 10:10:33;;;;;;;;;;;12.20;91.90;;;;;;5072505;28;20467;-75
2023/11/13 10:13:01;;;;;;;;;;;12.30;91.90;;;;;;5089471;28;19908;-75
2023/11/13 10:15:28;;;;;;;;;;;12.40;91.80;;;;;;5090620;28;20374;-73
2023/11/13 10:17:54;;;;;;;;;;;12.40;91.90;;;;;;5072074;28;19912;-67
2023/11/13 10:20:20;;;;;;;;;;;12.50;91.80;;;;;;5090059;28;19917;-74
2023/11/13 10:23:03;;;;;;;;;;;12.60;91.80;;;;;;5071728;28;20045;-75
2023/11/13 10:25:45;;;;;;;;;;;12.60;91.90;;;;;;5089518;28;19955;-74
2023/11/13 10:28:12;;;;;;;;;;;12.60;91.70;;;;;;5087009;28;20372;-74
2023/11/13 10:30:52;;;;;;;;;;;12.60;91.80;;;;;;5109719;28;19908;-72
2023/11/13 10:33:18;;;;;;;;;;;12.60;91.70;;;;;;5088437;28;19922;-76
2023/11/13 10:35:48;;;;;;;;;;;12.60;91.80;;;;;;5110188;28;19908;-75
2023/11/13 10:38:14;;;;;;;;;;;12.70;91.90;;;;;;5108762;28;19987;-74
2023/11/13 10:40:52;;;;;;;;;;;12.70;91.80;;;;;;5110175;28;19908;-77
2023/11/13 10:43:27;;;;;;;;;;;12.70;91.80;;;;;;5109976;28;19919;-76
2023/11/13 10:45:53;;;;;;;;;;;12.80;91.90;;;;;;5091439;28;19915;-75
2023/11/13 10:48:22;;;;;;;;;;;12.80;91.70;;;;;;5090022;28;20324;-74
2023/11/13 10:50:49;;;;;;;;;;;12.70;91.60;;;;;;5086641;28;19912;-76
2023/11/13 10:53:16;;;;;;;;;;;12.50;91.40;;;;;;5097343;28;19927;-75
2023/11/13 10:55:42;;;;;;;;;;;12.30;91.40;;;;;;5098031;28;19931;-75
2023/11/13 10:58:07;;;;;;;;;;;12.10;91.50;;;;;;5091043;28;19920;-75
2023/11/13 11:00:33;;;;;;;;;;;12.20;92.00;;;;;;5090474;28;20363;-76
2023/11/13 11:03:04;;;;;;;;;;;12.40;92.00;;;;;;5076224;27;19915;-76
2023/11/13 11:05:30;;;;;;;;;;;12.60;92.10;;;;;;5117598;27;19975;-75
2023/11/13 11:07:58;;;;;;;;;;;12.80;92.00;;;;;;5099620;27;20284;-74
2023/11/13 11:10:24;;;;;;;;;;;13.10;92.20;;;;;;5100155;27;20267;-73
2023/11/13 11:12:58;;;;;;;;;;;13.30;92.00;;;;;;5121549;27;19911;-77
2023/11/13 11:15:43;;;;;;;;;;;13.40;92.00;;;;;;5100428;27;20255;-75
2023/11/13 11:18:09;;;;;;;;;;;13.80;92.50;;;;;;5120642;27;19908;-75
2023/11/13 11:20:51;;;;;;;;;;;14.30;92.40;;;;;;5099379;27;20264;-75
2023/11/13 11:23:22;;;;;;;;;;;14.50;92.00;;;;;;5113164;27;19924;-72
2023/11/13 11:25:51;;;;;;;;;;;14.40;91.70;;;;;;5100643;27;19915;-74
2023/11/13 11:28:36;;;;;;;;;;;14.40;91.80;;;;;;5114776;27;19907;-72
2023/11/13 11:31:04;;;;;;;;;;;14.20;91.60;;;;;;5115895;27;19907;-73
2023/11/13 11:33:31;;;;;;;;;;;14.00;91.60;;;;;;5120134;27;19965;-74
2023/11/13 11:35:56;;;;;;;;;;;13.80;91.60;;;;;;5114797;27;20003;-73
2023/11/13 11:38:28;;;;;;;;;;;13.60;91.70;;;;;;5096801;28;20014;-77
2023/11/13 11:40:54;;;;;;;;;;;13.70;92.00;;;;;;5093226;28;19912;-78
2023/11/13 11:43:23;;;;;;;;;;;14.10;92.60;;;;;;5111125;28;19912;-79
2023/11/13 11:45:52;;;;;;;;;;;14.90;93.00;;;;;;5073118;28;19918;-79
2023/11/13 11:48:18;;;;;;;;;;;15.70;93.10;;;;;;5110827;28;19993;-79
2023/11/13 11:50:45;;;;;;;;;;;15.90;92.30;;;;;;5110239;28;20345;-77
2023/11/13 11:53:16;;;;;;;;;;;16.20;92.30;;;;;;5110327;28;19943;-79
2023/11/13 11:55:42;;;;;;;;;;;16.50;92.50;;;;;;5130845;27;19919;-78
2023/11/13 11:58:15;;;;;;;;;;;16.70;92.20;;;;;;5114451;27;19912;-78
2023/11/13 12:00:41;;;;;;;;;;;16.70;92.00;;;;;;5092437;28;20268;-78
2023/11/13 12:03:10;;;;;;;;;;;16.60;92.00;;;;;;5092057;28;19915;-78
2023/11/13 12:05:35;;;;;;;;;;;16.40;91.80;;;;;;5110528;28;20402;-78
2023/11/13 12:08:04;;;;;;;;;;;16.20;91.70;;;;;;5095435;28;19924;-78
2023/11/13 12:10:32;;;;;;;;;;;16.10;92.00;;;;;;5103817;28;20035;-77
2023/11/13 12:12:59;;;;;;;;;;;16.00;92.00;;;;;;5077035;28;20183;-76
2023/11/13 12:15:28;;;;;;;;;;;16.10;92.30;;;;;;5103274;28;20026;-77
2023/11/13 12:17:56;;;;;;;;;;;16.20;92.30;;;;;;5098521;28;20300;-78
2023/11/13 12:20:22;;;;;;;;;;;16.30;92.30;;;;;;5099760;28;19916;-78
2023/11/13 12:22:48;;;;;;;;;;;16.20;92.10;;;;;;5088301;28;19965;-77
2023/11/13 12:25:14;;;;;;;;;;;16.00;91.90;;;;;;5089567;28;19966;-79
2023/11/13 12:27:40;;;;;;;;;;;15.70;91.60;;;;;;5088446;28;20242;-80
2023/11/13 12:30:07;;;;;;;;;;;15.40;91.80;;;;;;5087042;28;19961;-76
2023/11/13 12:32:33;;;;;;;;;;;15.20;91.90;;;;;;5088358;28;19912;-78
2023/11/13 12:35:00;;;;;;;;;;;15.10;92.00;;;;;;5086044;28;20363;-79
2023/11/13 12:37:27;;;;;;;;;;;15.00;92.00;;;;;;5090252;28;20283;-80
2023/11/13 12:39:54;;;;;;;;;;;14.80;91.90;;;;;;5093265;28;20049;-78
2023/11/13 12:42:20;;;;;;;;;;;14.60;91.90;;;;;;5093448;28;19999;-79
2023/11/13 12:44:46;;;;;;;;;;;14.50;91.90;;;;;;5093791;28;20378;-79
2023/11/13 12:47:12;;;;;;;;;;;14.40;91.90;;;;;;5091710;28;20008;-77
2023/11/13 12:49:38;;;;;;;;;;;14.30;92.10;;;;;;5093081;28;19947;-79
2023/11/13 12:52:04;;;;;;;;;;;14.30;92.20;;;;;;5093693;28;19995;-77
2023/11/13 12:54:30;;;;;;;;;;;14.30;92.10;;;;;;5093643;28;19916;-79
2023/11/13 12:56:56;;;;;;;;;;;14.30;92.20;;;;;;5092188;28;20297;-79
2023/11/13 12:59:23;;;;;;;;;;;14.50;92.40;;;;;;5093421;28;19920;-77
2023/11/13 13:01:49;;;;;;;;;;;14.80;92.60;;;;;;5092998;28;19915;-78
2023/11/13 13:04:16;;;;;;;;;;;15.10;92.80;;;;;;5093371;28;19914;-77
2023/11/13 13:06:43;;;;;;;;;;;15.40;92.80;;;;;;5092612;28;20003;-67
2023/11/13 13:09:11;;;;;;;;;;;15.60;92.50;;;;;;5108505;28;19931;-77
2023/11/13 13:11:43;;;;;;;;;;;15.50;92.30;;;;;;5113275;28;19961;-77
2023/11/13 13:14:12;;;;;;;;;;;15.50;92.40;;;;;;5113655;28;19922;-81
2023/11/13 13:16:38;;;;;;;;;;;15.50;92.50;;;;;;5112195;28;19912;-77
2023/11/13 13:19:05;;;;;;;;;;;15.50;92.50;;;;;;5092994;28;20271;-77
2023/11/13 13:21:34;;;;;;;;;;;15.50;92.50;;;;;;5112708;28;19950;-76
2023/11/13 13:23:59;;;;;;;;;;;15.50;92.60;;;;;;5116204;27;19950;-74
2023/11/13 13:26:25;;;;;;;;;;;15.40;92.50;;;;;;5096889;28;19960;-76
2023/11/13 13:28:53;;;;;;;;;;;15.30;92.30;;;;;;5116682;27;19912;-74
2023/11/13 13:31:23;;;;;;;;;;;15.10;92.30;;;;;;5130469;27;19912;-73
2023/11/13 13:33:50;;;;;;;;;;;14.90;92.20;;;;;;5133177;27;19912;-75
2023/11/13 13:36:16;;;;;;;;;;;14.70;92.20;;;;;;5114538;27;19915;-79
2023/11/13 13:38:44;;;;;;;;;;;14.50;92.20;;;;;;5133800;27;19911;-75
2023/11/13 13:41:10;;;;;;;;;;;14.50;92.30;;;;;;5133011;27;20355;-73
2023/11/13 13:43:38;;;;;;;;;;;14.40;92.30;;;;;;5132691;27;19918;-75
2023/11/13 13:46:05;;;;;;;;;;;14.40;92.20;;;;;;5133397;27;19914;-77
2023/11/13 13:48:32;;;;;;;;;;;14.30;92.10;;;;;;5132085;27;19915;-73
2023/11/13 13:50:57;;;;;;;;;;;14.20;92.10;;;;;;5132812;27;20374;-76
2023/11/13 13:53:26;;;;;;;;;;;14.30;92.20;;;;;;5133132;27;19946;-76
2023/11/13 13:55:52;;;;;;;;;;;14.20;92.20;;;;;;5133250;27;20423;-75
2023/11/13 13:58:22;;;;;;;;;;;14.20;92.00;;;;;;5132761;27;20016;-74
2023/11/13 14:00:48;;;;;;;;;;;14.00;91.80;;;;;;5132084;27;19922;-72
2023/11/13 14:03:14;;;;;;;;;;;13.90;91.70;;;;;;5114278;27;19915;-75
2023/11/13 14:05:41;;;;;;;;;;;13.70;91.70;;;;;;5133000;27;19911;-76
2023/11/13 14:08:07;;;;;;;;;;;13.50;91.70;;;;;;5132602;27;20295;-74
2023/11/13 14:10:34;;;;;;;;;;;13.40;91.80;;;;;;5114101;27;20025;-74
2023/11/13 14:13:06;;;;;;;;;;;13.40;91.90;;;;;;5132534;27;20002;-77